KAND/AND METAR and TAF weather

Enter ICAO airport designator
Station Type Date Time Source
KAND METAR 2022/01/29 09:56 UTC NOAA

KAND 290956Z AUTO 29011KT 10SM CLR M01/M07 A2995 RMK AO2 SLP143 T10111072


Station Type Date Time Source
KAND Decoded METAR 2022/01/29 09:56 UTC NOAA

ANDERSON COUNTY AIRPORT, SC, United States (KAND) 34-30N 82-43W 239M
Jan 29, 2022 - 04:56 AM EST / 2022.01.29 0956 UTC
Wind: from the WNW (290 degrees) at 13 MPH (11 KT):0
Visibility: 10 mile(s):0
Sky conditions: clear
Temperature: 30.0 F (-1.1 C)
Windchill: 19 F (-7 C):1
Dew Point: 19.0 F (-7.2 C)
Relative Humidity: 63%
Pressure (altimeter): 29.95 in. Hg (1014 hPa)
ob: KAND 290956Z AUTO 29011KT 10SM CLR M01/M07 A2995 RMK AO2 SLP143 T10111072
cycle: 10

Station Type Date Time Source
KAND TAF 2022/01/29 06:48 UTC NOAA

TAF KAND 290545Z 2906/3006 29012G21KT P6SM FEW080
FM291300 31016G26KT P6SM SKC
FM292200 30011G18KT P6SM SKC
FM300100 28007KT P6SM SKC

Example: see airport list